Latest Weather Observations for Condobolin Airport

IDN60801

Issued at 9:32 am EST Thursday 27 April 2017 (issued every 30 minutes, with the page automatically refreshed every 10 minutes)

About weather observations | Map of weather stations | Latest weather observations for NSW | Other Formats
Station Details ID: 050137 Name: CONDOBOLIN AIRPORT AWS Lat: -33.07 Lon: 147.21 Height: 192.6 m
Data from the previous 72 hours. | See also: Recent months at Condobolin Airport
Date/Time
EST
Temp
°C
App
Temp
°C
Dew
Point
°C
Rel
Hum
%
Delta-T
°C
Wind Press
QNH
hPa
Press
MSL
hPa
Rain since
9am
mm
Dir  Spd
km/h
Gust
km/h
Spd
kts
Gust
kts
27/09:30am 9.7 4.2 5.9 77 1.8 SW 24 32 13 17 1021.1 1020.7 0.0
27/09:00am 8.9 3.0 5.6 80 1.5 SW 26 32 14 17 1020.8 1020.4 0.0
27/08:30am 8.2 3.4 5.7 84 1.1 SW 20 28 11 15 1020.6 1020.2 0.0
27/08:00am 7.2 2.8 4.9 85 1.0 SW 17 24 9 13 1020.3 1019.9 0.0
27/07:30am 6.5 2.9 4.8 89 0.7 WSW 13 20 7 11 1020.2 1019.8 0.0
27/07:00am 5.6 1.9 4.2 91 0.6 WSW 13 19 7 10 1019.8 1019.4 0.0
27/06:30am 5.7 1.6 4.2 90 0.6 WSW 15 17 8 9 1019.4 1019.1 0.0
27/06:00am 5.8 2.0 4.0 88 0.8 WSW 13 17 7 9 1019.0 1018.7 0.0
27/05:30am 6.6 2.5 4.4 86 1.0 SW 15 19 8 10 1018.7 1018.4 0.0
27/05:00am 6.6 2.5 4.3 85 1.0 SW 15 20 8 11 1018.1 1017.8 0.0
27/04:30am 7.3 2.4 4.3 81 1.3 SW 19 28 10 15 1017.7 1017.4 0.0
27/04:00am 7.4 2.4 4.4 81 1.3 SW 20 26 11 14 1017.3 1016.9 0.0
27/03:30am 7.8 2.8 4.6 80 1.4 SW 20 28 11 15 1017.3 1016.9 0.0
27/03:00am 7.9 2.5 4.7 80 1.4 WSW 22 26 12 14 1017.2 1016.8 0.0
27/02:30am 7.8 3.0 4.6 80 1.4 WSW 19 22 10 12 1017.4 1017.1 0.0
27/02:00am 7.6 3.9 4.2 79 1.5 WSW 13 20 7 11 1017.6 1017.3 0.0
27/01:30am 7.8 2.8 3.8 76 1.7 SW 19 26 10 14 1017.3 1016.9 0.0
27/01:00am 8.1 2.6 3.9 75 1.8 SW 22 28 12 15 1017.5 1017.2 0.0
27/12:30am 8.3 3.2 4.1 75 1.8 SW 20 24 11 13 1017.6 1017.3 0.0
27/12:00am 8.7 3.9 4.7 76 1.8 SW 19 26 10 14 1017.6 1017.3 0.0
 
Date/Time
EST
Temp
°C
App
Temp
°C
Dew
Point
°C
Rel
Hum
%
Delta-T
°C
Wind Press
QNH
hPa
Press
MSL
hPa
Rain since
9am
mm
Dir  Spd
km/h
Gust
km/h
Spd
kts
Gust
kts
26/11:30pm 8.9 4.0 5.3 78 1.6 SW 20 28 11 15 1017.7 1017.4 0.0
26/11:00pm 8.7 4.8 5.4 80 1.5 WSW 15 19 8 10 1017.5 1017.2 0.0
26/10:30pm 9.0 5.2 5.7 80 1.5 WSW 15 19 8 10 1017.4 1017.1 0.0
26/10:00pm 9.5 5.4 6.0 79 1.6 SW 17 22 9 12 1017.0 1016.6 0.0
26/09:30pm 9.6 5.9 6.5 81 1.5 WSW 15 20 8 11 1017.0 1016.6 0.0
26/09:00pm 9.7 6.1 6.6 81 1.5 WSW 15 19 8 10 1016.6 1016.2 0.0
26/08:30pm 10.3 6.0 7.0 80 1.6 WSW 19 24 10 13 1016.2 1015.8 0.0
26/08:00pm 10.6 5.9 7.7 82 1.4 WSW 22 28 12 15 1015.8 1015.4 0.0
26/07:30pm 10.6 6.4 8.2 85 1.2 WSW 20 30 11 16 1015.3 1014.9 0.0
26/07:00pm 10.9 6.3 8.3 84 1.3 WSW 22 28 12 15 1014.8 1014.4 0.0
26/06:30pm 11.0 6.6 9.1 88 1.0 WSW 22 30 12 16 1014.3 1013.9 0.0
26/06:00pm 11.3 6.5 8.9 85 1.2 WSW 24 35 13 19 1013.5 1013.2 0.0
26/05:30pm 11.2 6.4 8.9 86 1.2 WSW 24 37 13 20 1013.0 1012.7 0.0
26/05:00pm 11.2 6.3 8.4 83 1.4 WSW 24 32 13 17 1012.7 1012.3 0.0
26/04:30pm 10.7 4.1 8.5 86 1.1 SW 33 61 18 33 1012.4 1012.0 0.0
26/04:20pm 12.8 6.9 8.9 77 2.0 WSW 30 57 16 31 1012.1 1011.7 0.0
26/04:00pm 13.3 8.7 9.5 78 2.0 WSW 24 41 13 22 1011.7 1011.3 0.0
26/03:30pm 14.3 8.0 9.1 71 2.7 WSW 32 52 17 28 1011.2 1010.8 0.0
26/03:22pm 13.7 6.9 9.2 74 2.3 WSW 35 54 19 29 1011.2 1010.8 0.0
26/03:00pm 13.8 6.8 8.6 71 2.6 WSW 35 50 19 27 1010.8 1010.4 0.0
26/02:30pm 13.1 6.5 10.1 82 1.6 WSW 35 46 19 25 1010.5 1010.1 0.0
26/02:00pm 12.0 5.1 8.7 80 1.7 WSW 35 61 19 33 1010.3 1009.9 0.0
26/01:56pm 13.9 7.4 8.1 68 2.9 W 32 52 17 28 1010.0 1009.6 0.0
26/01:30pm 13.0 8.3 9.1 77 2.0 W 24 39 13 21 1010.0 1009.6 0.0
26/01:00pm 12.8 8.3 10.2 84 1.4 WSW 24 41 13 22 1010.2 1009.8 0.0
26/12:30pm 10.8 7.3 10.3 97 0.3 WSW 19 26 10 14 1010.5 1010.1 0.0
26/12:00pm 10.1 5.1 9.6 97 0.3 WSW 26 37 14 20 1010.8 1010.4 0.0
26/11:30am 10.1 5.1 9.5 96 0.3 WSW 26 32 14 17 1011.0 1010.6 0.0
26/11:00am 9.7 3.5 9.2 97 0.3 SW 32 50 17 27 1010.6 1010.2 0.0
26/10:41am 13.1 7.5 10.3 83 1.5 W 30 61 16 33 1010.1 1009.7 0.0
26/10:30am 14.5 9.3 11.5 82 1.6 W 30 39 16 21 1009.7 1009.3 0.0
26/10:00am 14.9 10.3 12.2 84 1.5 W 28 39 15 21 1009.6 1009.2 0.0
26/09:30am 14.8 10.3 12.5 86 1.3 W 28 37 15 20 1009.8 1009.4 0.0
26/09:00am 15.0 10.5 12.5 85 1.4 WNW 28 39 15 21 1009.7 1009.3 0.0
26/08:30am 14.0 11.0 12.4 90 0.9 WNW 20 28 11 15 1009.8 1009.4 0.0
26/08:00am 13.6 10.6 12.0 90 0.9 WNW 19 26 10 14 1009.9 1009.5 0.0
26/07:30am 13.4 10.4 12.0 91 0.8 NW 19 24 10 13 1009.7 1009.3 0.0
26/07:00am 13.3 10.7 11.9 91 0.8 NW 17 20 9 11 1009.6 1009.2 0.0
26/06:30am 13.5 10.9 11.9 90 0.9 NW 17 24 9 13 1009.6 1009.2 0.0
26/06:00am 13.0 11.1 11.9 93 0.6 NW 13 17 7 9 1009.6 1009.2 0.0
26/05:30am 12.8 10.8 11.5 92 0.7 NNW 13 15 7 8 1009.3 1008.9 0.0
26/05:00am 12.5 10.6 11.7 95 0.4 NNW 13 17 7 9 1009.6 1009.2 0.0
26/04:30am 12.4 10.4 11.5 94 0.5 NW 13 15 7 8 1009.6 1009.2 0.0
26/04:00am 12.9 10.6 11.8 93 0.6 WNW 15 17 8 9 1009.8 1009.4 0.0
26/03:30am 12.8 11.4 12.2 96 0.3 NW 11 15 6 8 1010.0 1009.6 0.0
26/03:00am 12.8 11.2 11.7 93 0.6 NW 11 13 6 7 1010.1 1009.7 0.0
26/02:30am 13.8 12.2 12.9 94 0.5 NW 13 15 7 8 1010.3 1009.9 0.0
26/02:00am 13.5 11.9 12.9 96 0.3 NW 13 15 7 8 1010.5 1010.1 0.0
26/01:30am 13.3 12.0 12.4 94 0.5 NW 11 13 6 7 1010.4 1010.0 0.0
26/01:00am 14.5 13.1 13.4 93 0.6 NW 13 15 7 8 1010.7 1010.3 0.0
26/12:30am 15.0 13.9 14.2 95 0.5 NW 13 15 7 8 1010.9 1010.5 0.0
26/12:00am 15.8 14.8 14.5 92 0.7 NW 13 17 7 9 1011.0 1010.6 0.0
 
Date/Time
EST
Temp
°C
App
Temp
°C
Dew
Point
°C
Rel
Hum
%
Delta-T
°C
Wind Press
QNH
hPa
Press
MSL
hPa
Rain since
9am
mm
Dir  Spd
km/h
Gust
km/h
Spd
kts
Gust
kts
25/11:30pm 15.8 15.0 15.0 95 0.5 NW 13 17 7 9 1011.2 1010.8 0.0
25/11:00pm 14.7 14.1 14.5 99 0.1 NW 11 13 6 7 1011.1 1010.7 0.0
25/10:30pm 14.7 14.0 14.4 98 0.2 NW 11 13 6 7 1011.0 1010.6 0.0
25/10:00pm 16.1 15.9 15.6 97 0.3 NW 11 13 6 7 1011.1 1010.7 0.0
25/09:30pm 16.7 16.8 16.4 98 0.2 NW 11 13 6 7 1011.2 1010.8 0.0
25/09:00pm 16.6 16.7 16.4 99 0.1 NW 11 13 6 7 1011.4 1011.0 0.0
25/08:30pm 15.9 16.1 15.7 99 0.1 NNW 9 13 5 7 1011.5 1011.1 0.0
25/08:00pm 15.8 15.6 15.6 99 0.1 NNW 11 13 6 7 1011.2 1010.8 0.0
25/07:30pm 15.7 16.4 15.5 99 0.1 NW 6 11 3 6 1011.0 1010.6 0.0
25/07:00pm 16.2 16.1 16.0 99 0.1 NW 11 13 6 7 1010.7 1010.3 0.0
25/06:30pm 16.7 16.4 16.5 99 0.1 WNW 13 15 7 8 1010.6 1010.2 0.0
25/06:00pm 17.3 16.9 17.1 99 0.1 WNW 15 20 8 11 1010.4 1010.0 0.0
25/05:30pm 17.1 16.4 16.5 96 0.4 WNW 15 20 8 11 1010.3 1009.9 0.0
25/05:00pm 17.4 16.5 16.9 97 0.3 W 17 30 9 16 1010.2 1009.8 0.0
25/04:30pm 19.8 19.5 17.4 86 1.5 NW 15 20 8 11 1010.0 1009.6 0.0
25/04:00pm 19.9 19.3 17.5 86 1.5 NW 17 24 9 13 1010.0 1009.6 0.0
25/03:30pm 19.6 18.4 17.4 87 1.4 NW 20 28 11 15 1010.1 1009.7 0.0
25/03:00pm 19.3 17.6 18.1 93 0.7 NW 24 30 13 16 1010.1 1009.7 0.0
25/02:30pm 19.1 18.5 18.9 99 0.1 NW 20 30 11 16 1010.3 1009.9 0.0
25/02:00pm 18.7 18.5 18.5 99 0.1 NW 17 22 9 12 1010.5 1010.1 0.0
25/01:30pm 19.1 17.9 17.6 91 0.9 NNW 20 30 11 16 1010.8 1010.4 0.0
25/01:00pm 19.5 18.0 17.8 90 1.1 NW 22 30 12 16 1011.3 1010.9 0.0
25/12:30pm 19.6 18.8 17.9 90 1.1 NW 19 26 10 14 1011.7 1011.3 0.0
25/12:00pm 19.2 18.3 17.7 91 0.9 NW 19 28 10 15 1012.1 1011.7 0.0
25/11:30am 18.5 17.6 17.7 95 0.5 NNW 19 26 10 14 1012.7 1012.3 0.0
25/11:00am 17.9 16.8 17.7 99 0.1 N 20 28 11 15 1013.1 1012.8 0.0
25/10:30am 17.2 16.0 17.0 99 0.1 NNW 19 24 10 13 1013.8 1013.5 0.0
25/10:00am 16.8 15.4 16.6 99 0.1 NNW 19 28 10 15 1014.2 1013.8 0.0
25/09:30am 16.6 15.5 16.4 99 0.1 NNW 17 24 9 13 1014.3 1013.9 0.0
25/09:00am 16.6 15.9 16.4 99 0.1 NW 15 20 8 11 1014.3 1013.9 0.0
25/08:30am 16.4 15.5 15.9 97 0.3 WNW 15 20 8 11 1014.1 1013.7 0.0
25/08:00am 16.6 14.5 15.3 92 0.8 NW 20 30 11 16 1013.9 1013.6 0.0
25/07:38am 18.1 13.2 13.8 76 2.5 NW 32 52 17 28 1013.2 1012.9 0.0
25/07:35am 18.8 13.8 13.4 71 3.1 NNW 32 52 17 28 1013.4 1013.1 0.0
25/07:30am 20.1 15.1 13.3 65 3.9 N 32 41 17 22 1012.0 1011.6 0.0
25/07:00am 20.0 15.2 13.0 64 4.0 N 30 41 16 22 1011.4 1011.0 0.0
25/06:30am 19.7 15.3 12.9 65 3.9 N 28 35 15 19 1011.6 1011.2 0.0
25/06:00am 19.7 15.8 13.2 66 3.7 N 26 33 14 18 1011.8 1011.4 0.0
25/05:30am 18.9 14.9 13.1 69 3.3 N 26 33 14 18 1011.9 1011.5 0.0
25/05:00am 18.9 15.4 13.3 70 3.2 NNE 24 30 13 16 1012.0 1011.6 0.0
25/04:30am 18.7 15.2 13.3 71 3.1 NNE 24 32 13 17 1012.1 1011.7 0.0
25/04:00am 18.4 15.3 13.5 73 2.8 NNE 22 30 12 16 1012.1 1011.7 0.0
25/03:30am 18.1 15.5 13.2 73 2.8 NNE 19 24 10 13 1012.3 1011.9 0.0
25/03:00am 18.5 15.7 13.1 71 3.1 NNE 20 26 11 14 1012.9 1012.6 0.0
25/02:30am 18.9 16.1 13.3 70 3.2 NNE 20 26 11 14 1013.1 1012.8 0.0
25/02:00am 19.4 16.6 13.3 68 3.5 NNE 20 28 11 15 1013.6 1013.3 0.0
25/01:30am 19.8 17.3 13.5 67 3.6 NNE 19 26 10 14 1014.1 1013.7 0.0
25/01:00am 19.9 17.8 13.6 67 3.6 NNE 17 24 9 13 1014.5 1014.1 0.0
25/12:30am 19.7 18.1 13.9 69 3.4 NNE 15 19 8 10 1015.0 1014.6 0.0
25/12:00am 20.0 17.6 13.9 68 3.5 NNE 19 22 10 12 1015.3 1014.9 0.0
 
Date/Time
EST
Temp
°C
App
Temp
°C
Dew
Point
°C
Rel
Hum
%
Delta-T
°C
Wind Press
QNH
hPa
Press
MSL
hPa
Rain since
9am
mm
Dir  Spd
km/h
Gust
km/h
Spd
kts
Gust
kts
24/11:30pm 19.0 17.7 14.7 76 2.5 NNE 15 19 8 10 1015.9 1015.5 0.0
24/11:00pm 17.2 16.7 13.9 81 1.9 ENE 9 9 5 5 1016.2 1015.8 0.0
24/10:30pm 16.6 16.0 13.5 82 1.8 ENE 9 11 5 6 1016.6 1016.2 0.0
24/10:00pm 16.9 16.0 13.6 81 1.9 ENE 11 13 6 7 1016.8 1016.4 0.0
24/09:30pm 17.5 17.0 13.8 79 2.1 E 9 11 5 6 1017.0 1016.6 0.0
24/09:00pm 17.8 17.0 14.1 79 2.1 ENE 11 11 6 6 1017.3 1016.9 0.0
24/08:30pm 18.1 17.8 14.4 79 2.1 ENE 9 11 5 6 1017.4 1017.1 0.0
24/08:00pm 17.6 17.1 13.7 78 2.2 ENE 9 11 5 6 1017.5 1017.2 0.0
24/07:30pm 18.7 18.0 14.4 76 2.5 ENE 11 13 6 7 1017.5 1017.2 0.0
24/07:00pm 18.5 17.8 14.2 76 2.5 ENE 11 11 6 6 1017.5 1017.2 0.0
24/06:30pm 18.9 18.2 14.4 75 2.6 NE 11 13 6 7 1017.4 1017.1 0.0
24/06:00pm 19.5 19.5 14.1 71 3.1 NE 7 11 4 6 1017.3 1016.9 0.0
24/05:30pm 20.3 19.0 13.7 66 3.8 NNE 13 15 7 8 1017.2 1016.8 0.0
24/05:00pm 22.0 20.6 14.4 62 4.5 NNE 15 19 8 10 1017.2 1016.8 0.0
24/04:30pm 22.5 21.0 14.1 59 5.0 NNE 15 19 8 10 1017.1 1016.7 0.0
24/04:00pm 22.9 21.3 13.9 57 5.3 NNE 15 19 8 10 1017.2 1016.8 0.0
24/03:30pm 23.0 22.3 14.3 58 5.2 N 11 15 6 8 1017.4 1017.1 0.0
24/03:00pm 22.8 21.5 13.6 56 5.4 N 13 17 7 9 1017.6 1017.3 0.0
24/02:30pm 22.7 20.3 13.7 56 5.3 N 19 22 10 12 1017.7 1017.4 0.0
24/02:00pm 22.9 21.5 14.5 59 5.0 N 15 20 8 11 1018.0 1017.7 0.0
24/01:30pm 22.8 20.9 14.1 58 5.1 NNW 17 24 9 13 1018.4 1018.1 0.0
24/01:00pm 22.6 20.2 13.7 57 5.2 N 19 26 10 14 1018.7 1018.4 0.0
24/12:30pm 23.2 21.7 14.2 57 5.3 NNW 15 22 8 12 1019.2 1018.9 0.0
24/12:00pm 22.5 21.0 14.1 59 4.9 NNW 15 20 8 11 1019.9 1019.5 0.0
24/11:30am 22.1 20.7 13.5 58 5.0 NNW 13 19 7 10 1020.3 1019.9 0.0
24/11:00am 21.9 20.5 13.5 59 4.9 NNW 13 17 7 9 1021.0 1020.6 0.0
24/10:30am 21.2 19.3 12.9 59 4.8 N 15 20 8 11 1021.4 1021.0 0.0
24/10:00am 21.0 20.5 13.7 63 4.2 N 9 17 5 9 1021.4 1021.0 0.0

Other Formats:

Comma delimited format used in spreadsheet applications
http://www.bom.gov.au/fwo/IDN60801/IDN60801.95708.axf

JavaScript Object Notation format (JSON) in row-major order
http://www.bom.gov.au/fwo/IDN60801/IDN60801.95708.json